Valparaiso, FL (32580)

10:29 AM CDT on August 30, 2015 (GMT -0500)
Pear Tree Observatory | | Change Station
CLOSE
Current Station
Personal Weather Station
Location: Valparaiso, FL
Elevation: 80 ft
Nearby Weather Stations

Elev 80 ft 30.51 °N, 86.50 °W | Updated 20 seconds ago

Partly Cloudy
Partly Cloudy
86.3 °F
Feels Like 94 °F
N
1.0
Wind Variable Wind from North
Gusts 5.0 mph

Today
High -- | Low -- °F
--% Chance of Precip.
Yesterday
High -- | Low -- °F
Precip. -- in
6:21 AM 7:11 PM
Full, 99% visible
Pressure 30.08 in
Visibility 10.0 miles
Clouds Few 3000 ft
Few 20000 ft
Heat Index 94 °F
Dew Point 73 °F
Humidity 65%
Rainfall 0.00 in
Snow Depth Not available.
UV 6 out of 12
Pollen 7.50 out of 12
Air Quality Not available.
Flu Activity Not available.
METAR KVPS 301456Z 01003KT 10SM FEW030 FEW200 30/20 A3006 RMK AO2A SLP185 T02950202 52011 $
Pressure 30.08 in
Visibility 10.0 miles
Clouds Few 3000 ft
Few 20000 ft
Heat Index 94 °F
Dew Point 73 °F
Humidity 65%
Rainfall 0.00 in
Snow Depth Not available.
UV 6 out of 12
Pollen 7.50 out of 12
Air Quality Not available.
Flu Activity Not available.
METAR KVPS 301456Z 01003KT 10SM FEW030 FEW200 30/20 A3006 RMK AO2A SLP185 T02950202 52011 $

10-Day Weather Forecast

×

Almanac

Astronomy

Aug. 30, 2015 Rise Set
Actual Time
Civil Twilight
Nautical Twilight
Astronomical Twilight
Moon
Length of Visible Light
Length of Day
Tomorrow will be .
, % of the Moon is Illuminated

Today's Extremes

State Highs State Lows

Community

WunderPhotos

Upload Photos

1,850,995 photos uploaded!

WunderBlogs® & News

Nearby

Air Quality

  Air Quality AQ Index Pollutant
Not available.

Snow Depth

Station Depth Elevation

Earthquake Activity

City Distance Mag. Time & Date
Minimum magnitude displayed is 2.5.

Coastal Water Temperatures

Place Temperature

Stations

Nearby Weather Stations

Station Location Temp. Windchill Dew Point Humidity Wind Precip. Elev Updated Type